Time;durP1;ratioP1;P1;durP2;ratioP2;P2;SDS_P1;SDS_P2;PMS_P1;PMS_P2;Temp;Humidity;BMP_temperature;BMP_pressure;BME280_temperature;BME280_humidity;BME280_pressure;Samples;Min_cycle;Max_cycle;Signal;HPM_P1;HPM_P2
2020/12/16 00:01:35;;;;;;;2.57;2.37;;;20.00;26.60;;;;;;5062609;28;20189;-53
2020/12/16 00:04:01;;;;;;;2.40;2.20;;;20.00;26.80;;;;;;5040443;28;20289;-53
2020/12/16 00:06:27;;;;;;;2.33;2.13;;;20.00;26.80;;;;;;5076068;28;20170;-53
2020/12/16 00:08:53;;;;;;;2.33;2.10;;;20.00;29.20;;;;;;5054849;28;20783;-53
2020/12/16 00:11:18;;;;;;;3.43;2.70;;;20.00;34.20;;;;;;5044922;28;20188;-53
2020/12/16 00:13:44;;;;;;;2.40;2.20;;;20.00;34.40;;;;;;5063497;28;20308;-53
2020/12/16 00:16:10;;;;;;;2.20;2.07;;;20.00;34.80;;;;;;5058891;28;20502;-52
2020/12/16 00:18:35;;;;;;;2.60;2.40;;;20.00;36.40;;;;;;5051571;28;20181;-53
2020/12/16 00:21:01;;;;;;;2.30;2.10;;;20.30;36.30;;;;;;5074548;28;20227;-53
2020/12/16 00:23:27;;;;;;;2.23;2.00;;;20.00;35.50;;;;;;5075028;28;20173;-52
2020/12/16 00:25:52;;;;;;;3.23;2.33;;;20.00;35.10;;;;;;5076018;28;20181;-53
2020/12/16 00:28:18;;;;;;;2.30;2.10;;;20.00;28.30;;;;;;5016632;28;20212;-53
2020/12/16 00:30:47;;;;;;;2.43;2.23;;;20.00;26.60;;;;;;5066947;28;20181;-53
2020/12/16 00:33:17;;;;;;;2.72;1.95;;;19.90;26.50;;;;;;5063510;28;20173;-53
2020/12/16 00:35:44;;;;;;;2.30;2.10;;;20.00;26.60;;;;;;5045394;28;20181;-53
2020/12/16 00:38:11;;;;;;;2.05;1.80;;;19.90;26.60;;;;;;5050171;28;20672;-55
2020/12/16 00:40:37;;;;;;;2.00;1.80;;;19.90;26.50;;;;;;5049054;28;20182;-52
2020/12/16 00:43:03;;;;;;;2.55;2.20;;;19.90;26.50;;;;;;5074282;28;20168;-53
2020/12/16 00:45:28;;;;;;;1.80;1.70;;;19.90;26.50;;;;;;5074909;28;20200;-53
2020/12/16 00:47:54;;;;;;;2.20;2.10;;;19.90;26.50;;;;;;5062179;28;20710;-53
2020/12/16 00:50:20;;;;;;;2.50;2.30;;;20.00;26.70;;;;;;5060460;28;20165;-52
2020/12/16 00:52:49;;;;;;;2.17;1.97;;;19.90;26.50;;;;;;5037829;28;20662;-53
2020/12/16 00:55:15;;;;;;;2.30;2.10;;;19.90;26.60;;;;;;5064126;28;20279;-53
2020/12/16 00:57:40;;;;;;;2.30;2.10;;;19.90;30.40;;;;;;5039683;28;20182;-53
2020/12/16 01:00:08;;;;;;;2.23;2.03;;;19.90;33.60;;;;;;5062568;28;20185;-53
2020/12/16 01:02:37;;;;;;;2.30;2.10;;;19.90;34.20;;;;;;5061739;28;20188;-53
2020/12/16 01:05:03;;;;;;;2.90;2.20;;;19.90;34.90;;;;;;5057527;28;20172;-53
2020/12/16 01:07:29;;;;;;;2.27;2.07;;;19.90;36.00;;;;;;5059746;28;20197;-53
2020/12/16 01:09:54;;;;;;;2.40;2.20;;;19.90;37.20;;;;;;5060932;28;20408;-53
2020/12/16 01:12:20;;;;;;;2.20;2.00;;;;;;;;;;5069878;28;20185;-53
2020/12/16 01:14:46;;;;;;;1.58;1.48;;;19.90;26.60;;;;;;5062372;28;20217;-53
2020/12/16 01:17:12;;;;;;;2.23;2.03;;;19.90;27.00;;;;;;5037223;28;20215;-53
2020/12/16 01:19:37;;;;;;;2.57;2.37;;;19.90;28.10;;;;;;5051647;28;20275;-53
2020/12/16 01:22:03;;;;;;;2.30;2.10;;;20.00;29.60;;;;;;5060630;28;20732;-53
2020/12/16 01:24:29;;;;;;;2.10;1.90;;;19.90;29.90;;;;;;5062409;28;20184;-53
2020/12/16 01:26:54;;;;;;;2.47;2.27;;;19.90;30.00;;;;;;5061846;28;20634;-53
2020/12/16 01:29:21;;;;;;;2.60;1.97;;;19.90;29.60;;;;;;5030760;28;20204;-53
2020/12/16 01:31:48;;;;;;;2.00;1.90;;;19.90;30.20;;;;;;5073131;28;20172;-53
2020/12/16 01:34:19;;;;;;;2.65;2.45;;;19.90;29.90;;;;;;5067951;28;20632;-53
2020/12/16 01:36:49;;;;;;;2.20;1.83;;;20.10;30.20;;;;;;5062596;28;20300;-53
2020/12/16 01:39:18;;;;;;;1.80;1.60;;;19.90;30.30;;;;;;5030205;28;20204;-53
2020/12/16 01:41:48;;;;;;;2.50;2.30;;;19.90;30.40;;;;;;5036684;28;20227;-53
2020/12/16 01:44:19;;;;;;;2.33;1.70;;;19.90;30.60;;;;;;5062799;28;20182;-53
2020/12/16 01:46:56;;;;;;;1.70;1.60;;;20.00;30.70;;;;;;5061710;28;20173;-53
2020/12/16 01:49:22;;;;;;;1.73;1.63;;;19.90;31.10;;;;;;5053386;28;20656;-54
2020/12/16 01:51:53;;;;;;;2.67;2.08;;;19.90;30.80;;;;;;5072575;28;20631;-54
2020/12/16 01:54:21;;;;;;;1.80;1.70;;;19.90;31.00;;;;;;5060054;28;20157;-54
2020/12/16 01:56:50;;;;;;;2.45;1.92;;;19.90;31.70;;;;;;5062123;28;20692;-53
2020/12/16 01:59:16;;;;;;;2.33;2.05;;;19.90;31.30;;;;;;5050130;28;20260;-53
2020/12/16 02:01:45;;;;;;;2.08;1.88;;;19.90;31.50;;;;;;5060507;28;20312;-53
2020/12/16 02:04:13;;;;;;;2.38;2.00;;;19.90;32.20;;;;;;5062141;28;20219;-53
2020/12/16 02:06:42;;;;;;;2.22;2.03;;;19.90;32.60;;;;;;5063893;28;20161;-53
2020/12/16 02:09:10;;;;;;;2.97;2.10;;;19.90;33.20;;;;;;5049851;28;20226;-53
2020/12/16 02:11:37;;;;;;;2.50;2.30;;;19.90;34.10;;;;;;5060401;28;20203;-53
2020/12/16 02:14:12;;;;;;;4.45;2.42;;;19.90;34.90;;;;;;5063167;28;20217;-53
2020/12/16 02:16:38;;;;;;;1.90;1.80;;;19.90;40.50;;;;;;5071113;28;20187;-54
2020/12/16 02:19:05;;;;;;;2.17;1.75;;;19.90;38.90;;;;;;5047717;28;20186;-54
2020/12/16 02:21:32;;;;;;;2.58;2.38;;;19.90;40.90;;;;;;5060356;28;20196;-54
2020/12/16 02:24:10;;;;;;;1.98;1.88;;;19.90;43.40;;;;;;5066205;28;20596;-54
2020/12/16 02:26:40;;;;;;;2.10;2.00;;;19.90;36.70;;;;;;5070282;28;20161;-53
2020/12/16 02:29:07;;;;;;;1.58;1.48;;;19.90;35.20;;;;;;5050741;28;20204;-53
2020/12/16 02:31:35;;;;;;;1.88;1.73;;;19.90;34.90;;;;;;5041507;28;20189;-53
2020/12/16 02:34:00;;;;;;;2.00;1.80;;;19.80;35.70;;;;;;5065999;28;20187;-53
2020/12/16 02:36:26;;;;;;;2.10;1.90;;;19.90;44.20;;;;;;5067532;28;20176;-53
2020/12/16 02:38:54;;;;;;;2.17;1.97;;;19.80;35.60;;;;;;5055230;28;20636;-53
2020/12/16 02:41:20;;;;;;;1.70;1.60;;;19.90;36.20;;;;;;5064248;28;20469;-52
2020/12/16 02:43:46;;;;;;;2.47;2.28;;;19.70;37.40;;;;;;5063753;28;20184;-52
2020/12/16 02:46:12;;;;;;;2.00;1.80;;;19.90;40.00;;;;;;5059634;28;20178;-52
2020/12/16 02:48:37;;;;;;;2.10;1.90;;;19.90;38.10;;;;;;5058520;28;20200;-53
2020/12/16 02:51:03;;;;;;;1.90;1.80;;;19.30;40.10;;;;;;5067759;28;20494;-52
2020/12/16 02:53:29;;;;;;;2.00;1.80;;;19.90;38.70;;;;;;5055058;28;20636;-53
2020/12/16 02:55:55;;;;;;;2.70;2.30;;;19.80;40.80;;;;;;5060125;28;21184;-52
2020/12/16 02:58:20;;;;;;;1.97;1.73;;;19.90;40.80;;;;;;5052668;28;20192;-53
2020/12/16 03:00:47;;;;;;;2.07;1.87;;;19.90;39.90;;;;;;5073633;28;20645;-53
2020/12/16 03:03:13;;;;;;;2.35;2.20;;;19.90;40.40;;;;;;5076709;28;20170;-53
2020/12/16 03:05:38;;;;;;;2.97;1.63;;;19.80;37.80;;;;;;5075815;28;20162;-53
2020/12/16 03:08:07;;;;;;;2.23;1.70;;;19.90;37.20;;;;;;5049953;28;20280;-53
2020/12/16 03:10:35;;;;;;;1.80;1.70;;;19.20;36.80;;;;;;5072778;28;20157;-53
2020/12/16 03:13:00;;;;;;;2.88;2.10;;;19.90;37.40;;;;;;5066243;28;20174;-53
2020/12/16 03:15:26;;;;;;;3.00;2.27;;;19.80;37.30;;;;;;5065552;28;20304;-53
2020/12/16 03:17:52;;;;;;;2.23;2.03;;;19.80;37.20;;;;;;5055517;28;21930;-53
2020/12/16 03:20:17;;;;;;;2.23;2.07;;;19.90;37.30;;;;;;5042538;28;20170;-53
2020/12/16 03:22:43;;;;;;;1.90;1.73;;;20.10;33.80;;;;;;5062981;28;20535;-53
2020/12/16 03:25:09;;;;;;;1.93;1.73;;;19.80;33.80;;;;;;5064245;28;20204;-53
2020/12/16 03:27:35;;;;;;;1.80;1.70;;;19.90;33.80;;;;;;5059403;28;20272;-53
2020/12/16 03:30:01;;;;;;;2.17;1.97;;;19.80;33.90;;;;;;5040234;28;20579;-53
2020/12/16 03:32:26;;;;;;;2.40;2.20;;;19.80;34.20;;;;;;5056796;28;20403;-53
2020/12/16 03:34:52;;;;;;;1.80;1.70;;;19.80;33.80;;;;;;5064659;28;20987;-53
2020/12/16 03:37:18;;;;;;;2.10;1.90;;;19.80;33.80;;;;;;5061102;28;20166;-54
2020/12/16 03:39:43;;;;;;;1.77;1.60;;;19.30;34.60;;;;;;5037857;28;20227;-52
2020/12/16 03:42:10;;;;;;;2.20;2.00;;;19.70;35.00;;;;;;5063513;28;20188;-53
2020/12/16 03:44:36;;;;;;;2.10;2.00;;;20.10;33.00;;;;;;5057662;28;20539;-53
2020/12/16 03:47:01;;;;;;;2.20;2.00;;;19.80;33.30;;;;;;5049474;28;20659;-52
2020/12/16 03:49:27;;;;;;;2.40;2.20;;;19.80;33.10;;;;;;5054193;28;20194;-54
2020/12/16 03:51:55;;;;;;;2.37;2.17;;;19.80;33.10;;;;;;5044330;28;20193;-53
2020/12/16 03:54:22;;;;;;;2.08;1.88;;;19.80;33.30;;;;;;5064024;28;20200;-52
2020/12/16 03:56:48;;;;;;;1.80;1.70;;;19.80;33.30;;;;;;5057878;28;20176;-52
2020/12/16 03:59:13;;;;;;;2.27;1.90;;;19.80;33.40;;;;;;5051462;28;20173;-52
2020/12/16 04:01:39;;;;;;;1.90;1.80;;;19.80;33.60;;;;;;5063534;28;20417;-52
2020/12/16 04:04:05;;;;;;;1.63;1.53;;;19.80;33.00;;;;;;5045034;28;20217;-52
2020/12/16 04:06:31;;;;;;;2.37;2.17;;;19.80;32.90;;;;;;5070175;28;20185;-53
2020/12/16 04:08:56;;;;;;;2.50;2.30;;;19.80;33.20;;;;;;5046324;28;20910;-53
2020/12/16 04:11:22;;;;;;;1.90;1.70;;;19.80;33.40;;;;;;5063388;28;20211;-52
2020/12/16 04:13:48;;;;;;;1.93;1.83;;;19.50;35.00;;;;;;5067233;28;20664;-53
2020/12/16 04:16:19;;;;;;;1.90;1.70;;;19.80;36.40;;;;;;5074703;28;20177;-53
2020/12/16 04:18:49;;;;;;;1.77;1.60;;;19.90;38.20;;;;;;5037042;28;20227;-53
2020/12/16 04:21:21;;;;;;;1.95;1.75;;;19.80;32.20;;;;;;5056921;28;20242;-53
2020/12/16 04:23:50;;;;;;;1.58;1.48;;;19.80;32.20;;;;;;5069131;28;20311;-53
2020/12/16 04:26:24;;;;;;;2.35;2.15;;;19.80;33.80;;;;;;5056831;28;20192;-53
2020/12/16 04:28:50;;;;;;;2.25;2.00;;;;;;;;;;5050558;28;20201;-53
2020/12/16 04:31:19;;;;;;;1.60;1.50;;;19.80;25.90;;;;;;5063458;28;20232;-53
2020/12/16 04:33:48;;;;;;;1.60;1.50;;;19.80;26.40;;;;;;5068991;28;20158;-53
2020/12/16 04:36:20;;;;;;;2.08;1.77;;;19.80;26.40;;;;;;5068339;28;20197;-53
2020/12/16 04:38:46;;;;;;;2.05;1.92;;;19.80;26.40;;;;;;5051002;28;20248;-53
2020/12/16 04:41:12;;;;;;;1.90;1.70;;;19.80;26.40;;;;;;5066005;28;20716;-53
2020/12/16 04:43:42;;;;;;;1.80;1.70;;;19.80;26.40;;;;;;5069996;28;20390;-53
2020/12/16 04:46:13;;;;;;;1.90;1.80;;;19.80;26.40;;;;;;5041326;28;20583;-53
2020/12/16 04:48:39;;;;;;;2.47;2.03;;;19.80;26.40;;;;;;5050869;28;20201;-53
2020/12/16 04:51:05;;;;;;;1.70;1.53;;;19.80;27.00;;;;;;5068972;28;20520;-53
2020/12/16 04:53:33;;;;;;;2.00;1.90;;;19.80;26.40;;;;;;5061989;28;20166;-53
2020/12/16 04:55:59;;;;;;;1.70;1.60;;;19.80;26.40;;;;;;5060044;28;20237;-53
2020/12/16 04:58:24;;;;;;;1.67;1.57;;;19.80;26.40;;;;;;5046859;28;20198;-53
2020/12/16 05:00:50;;;;;;;1.93;1.83;;;19.80;26.40;;;;;;5064824;28;20435;-53
2020/12/16 05:03:16;;;;;;;1.70;1.60;;;19.80;26.40;;;;;;5061659;28;20173;-53
2020/12/16 05:05:41;;;;;;;1.60;1.50;;;19.80;26.50;;;;;;5047738;28;20704;-53
2020/12/16 05:08:17;;;;;;;1.80;1.70;;;19.80;26.50;;;;;;5054386;28;20205;-53
2020/12/16 05:10:45;;;;;;;1.50;1.40;;;19.80;26.40;;;;;;5060243;28;20169;-53
2020/12/16 05:13:21;;;;;;;2.20;2.10;;;19.80;26.70;;;;;;5060730;28;20200;-53
2020/12/16 05:15:48;;;;;;;1.65;1.55;;;;;;;;;;5063089;28;20172;-53
2020/12/16 05:18:16;;;;;;;1.80;1.70;;;19.80;26.00;;;;;;5051580;28;20166;-53
2020/12/16 05:20:51;;;;;;;1.65;1.55;;;19.80;26.50;;;;;;5060734;28;20184;-53
2020/12/16 05:23:18;;;;;;;1.88;1.77;;;19.80;26.40;;;;;;5058095;28;20161;-53
2020/12/16 05:26:07;;;;;;;1.95;1.85;;;19.80;26.40;;;;;;5067214;28;20165;-55
2020/12/16 05:28:38;;;;;;;1.90;1.80;;;19.80;26.50;;;;;;5056151;28;20645;-54
2020/12/16 05:31:05;;;;;;;1.70;1.60;;;;;;;;;;5064871;28;20243;-54
2020/12/16 05:33:31;;;;;;;1.67;1.58;;;19.80;26.00;;;;;;5060246;28;20294;-54
2020/12/16 05:35:56;;;;;;;1.97;1.87;;;19.80;26.50;;;;;;5072780;28;21384;-53
2020/12/16 05:38:23;;;;;;;1.87;1.70;;;19.70;26.40;;;;;;5056100;28;20181;-54
2020/12/16 05:40:49;;;;;;;1.70;1.60;;;19.70;26.40;;;;;;5063470;28;20423;-54
2020/12/16 05:43:28;;;;;;;2.20;1.88;;;19.70;26.40;;;;;;5069480;28;20530;-54
2020/12/16 05:45:54;;;;;;;1.60;1.50;;;19.70;26.50;;;;;;5063535;28;20178;-55
2020/12/16 05:48:19;;;;;;;1.90;1.80;;;19.70;26.40;;;;;;5049979;28;20194;-55
2020/12/16 05:50:53;;;;;;;1.60;1.50;;;20.00;26.70;;;;;;5066679;28;20556;-53
2020/12/16 05:53:24;;;;;;;1.95;1.85;;;19.70;26.50;;;;;;5072137;28;21729;-53
2020/12/16 05:55:51;;;;;;;1.75;1.50;;;19.70;26.50;;;;;;5062394;28;20211;-55
2020/12/16 05:58:18;;;;;;;1.58;1.48;;;19.70;26.50;;;;;;5045273;28;20652;-55
2020/12/16 06:00:53;;;;;;;1.90;1.80;;;19.70;26.50;;;;;;5070964;28;20205;-53
2020/12/16 06:03:30;;;;;;;1.90;1.80;;;19.70;26.50;;;;;;5062539;28;20165;-54
2020/12/16 06:05:59;;;;;;;1.45;1.35;;;19.70;26.50;;;;;;5062169;28;20161;-53
2020/12/16 06:08:27;;;;;;;2.15;1.95;;;19.70;26.50;;;;;;5047351;28;20223;-53
2020/12/16 06:10:53;;;;;;;2.00;1.90;;;19.70;26.50;;;;;;5062491;28;20207;-53
2020/12/16 06:13:20;;;;;;;1.90;1.70;;;19.70;26.50;;;;;;5041670;28;20189;-54
2020/12/16 06:15:53;;;;;;;2.15;1.98;;;19.70;26.50;;;;;;5061089;28;20256;-53
2020/12/16 06:18:22;;;;;;;2.00;1.90;;;19.70;26.60;;;;;;5049968;28;20190;-53
2020/12/16 06:20:48;;;;;;;2.45;1.83;;;19.70;26.50;;;;;;5063680;28;20150;-52
2020/12/16 06:23:24;;;;;;;1.70;1.60;;;19.70;26.50;;;;;;5052663;28;20284;-52
2020/12/16 06:25:53;;;;;;;1.70;1.60;;;19.70;26.60;;;;;;5064071;28;20291;-52
2020/12/16 06:28:19;;;;;;;1.50;1.40;;;19.70;26.50;;;;;;5037581;28;21056;-53
2020/12/16 06:30:54;;;;;;;1.40;1.30;;;19.70;26.60;;;;;;5044162;28;20562;-53
2020/12/16 06:33:44;;;;;;;1.70;1.60;;;19.70;26.50;;;;;;5069315;28;20158;-53
2020/12/16 06:36:11;;;;;;;1.50;1.40;;;19.70;26.50;;;;;;5063170;28;20525;-53
2020/12/16 06:38:42;;;;;;;1.80;1.50;;;19.70;26.60;;;;;;5029901;28;20185;-53
2020/12/16 06:41:26;;;;;;;1.67;1.58;;;19.70;26.60;;;;;;5073243;28;20278;-53
2020/12/16 06:43:56;;;;;;;1.80;1.70;;;19.70;26.50;;;;;;5059356;28;20232;-52
2020/12/16 06:46:32;;;;;;;1.80;1.70;;;19.70;26.60;;;;;;5058486;28;21721;-53
2020/12/16 06:48:58;;;;;;;2.05;1.95;;;19.70;26.60;;;;;;5046258;28;20220;-53
2020/12/16 06:51:27;;;;;;;2.00;1.90;;;19.70;26.60;;;;;;5044051;28;20174;-52
2020/12/16 06:54:05;;;;;;;1.67;1.45;;;19.70;26.60;;;;;;5059651;28;20162;-53
2020/12/16 06:56:31;;;;;;;2.05;1.95;;;19.70;26.60;;;;;;5060563;28;20165;-53
2020/12/16 06:58:57;;;;;;;1.75;1.65;;;19.70;26.60;;;;;;5046688;28;20165;-53
2020/12/16 07:01:23;;;;;;;1.60;1.50;;;19.70;26.60;;;;;;5057074;28;20196;-52
2020/12/16 07:03:49;;;;;;;2.03;1.83;;;19.70;26.60;;;;;;5059748;28;20181;-53
2020/12/16 07:06:27;;;;;;;1.80;1.70;;;19.70;26.60;;;;;;5061398;28;20272;-53
2020/12/16 07:09:15;;;;;;;2.00;1.55;;;19.70;26.60;;;;;;5050871;28;20204;-54
2020/12/16 07:11:42;;;;;;;1.80;1.58;;;19.70;26.60;;;;;;5041295;28;20169;-53
2020/12/16 07:14:38;;;;;;;1.50;1.30;;;18.00;25.40;;;;;;5070610;28;20221;-52
2020/12/16 07:17:06;;;;;;;1.83;1.73;;;19.70;26.60;;;;;;5042573;28;20292;-53
2020/12/16 07:19:31;;;;;;;1.60;1.50;;;19.70;26.60;;;;;;5054771;28;20177;-53
2020/12/16 07:21:57;;;;;;;1.50;1.40;;;19.70;26.60;;;;;;5067370;28;20176;-53
2020/12/16 07:24:24;;;;;;;1.70;1.60;;;19.70;26.60;;;;;;5068470;28;20624;-53
2020/12/16 07:26:55;;;;;;;1.60;1.50;;;19.70;26.50;;;;;;5046631;28;20185;-52
2020/12/16 07:29:23;;;;;;;2.17;1.95;;;19.70;26.50;;;;;;5052574;28;20202;-53
2020/12/16 07:32:08;;;;;;;1.60;1.50;;;19.70;26.60;;;;;;5071362;28;20161;-53
2020/12/16 07:34:49;;;;;;;1.83;1.73;;;19.70;26.50;;;;;;5075017;28;20279;-52
2020/12/16 07:37:16;;;;;;;3.03;1.83;;;19.70;26.50;;;;;;5060131;28;20299;-53
2020/12/16 07:39:54;;;;;;;1.75;1.65;;;19.70;26.50;;;;;;5056273;28;20165;-53
2020/12/16 07:42:31;;;;;;;1.40;1.30;;;19.70;26.50;;;;;;5053653;28;20169;-52
2020/12/16 07:44:59;;;;;;;1.67;1.58;;;19.70;26.60;;;;;;5074605;28;20751;-53
2020/12/16 07:47:25;;;;;;;2.05;1.90;;;19.70;26.50;;;;;;5068318;28;20262;-54
2020/12/16 07:49:52;;;;;;;2.05;1.85;;;19.70;26.60;;;;;;5049044;28;20364;-52
2020/12/16 07:52:29;;;;;;;1.83;1.55;;;19.70;26.50;;;;;;5074220;28;20281;-53
2020/12/16 07:54:58;;;;;;;1.85;1.73;;;19.70;26.50;;;;;;5043606;28;20184;-52
2020/12/16 07:57:32;;;;;;;1.90;1.63;;;19.70;26.50;;;;;;5040938;28;20182;-53
2020/12/16 07:59:58;;;;;;;2.20;2.00;;;19.70;26.50;;;;;;5058142;28;20197;-53
2020/12/16 08:02:25;;;;;;;1.90;1.80;;;19.70;26.50;;;;;;5061302;28;21088;-54
2020/12/16 08:05:01;;;;;;;1.90;1.77;;;19.70;26.40;;;;;;5068714;28;20553;-53
2020/12/16 08:07:27;;;;;;;1.58;1.48;;;19.70;26.40;;;;;;5058603;28;20177;-54
2020/12/16 08:09:55;;;;;;;2.10;1.50;;;19.70;26.40;;;;;;5058962;28;20198;-54
2020/12/16 08:12:26;;;;;;;1.58;1.48;;;19.70;26.40;;;;;;5074900;28;20153;-53
2020/12/16 08:15:04;;;;;;;3.63;2.22;;;19.70;26.40;;;;;;5060091;28;20680;-54
2020/12/16 08:17:36;;;;;;;1.65;1.55;;;19.80;26.50;;;;;;5033567;28;20669;-54
2020/12/16 08:20:22;;;;;;;1.95;1.80;;;19.30;26.20;;;;;;5051635;28;20215;-54
2020/12/16 08:22:50;;;;;;;2.05;1.80;;;19.70;26.40;;;;;;5060268;28;20184;-53
2020/12/16 08:25:18;;;;;;;1.88;1.60;;;19.80;26.50;;;;;;5011759;28;20185;-53
2020/12/16 08:27:48;;;;;;;1.98;1.70;;;19.70;26.40;;;;;;5054860;28;20243;-53
2020/12/16 08:30:16;;;;;;;2.95;1.85;;;19.80;26.40;;;;;;5057943;28;20181;-56
2020/12/16 08:33:03;;;;;;;1.70;1.60;;;19.80;26.50;;;;;;5067942;28;20185;-54
2020/12/16 08:35:49;;;;;;;2.20;2.00;;;19.80;26.60;;;;;;5064502;28;20177;-53
2020/12/16 08:38:25;;;;;;;1.83;1.60;;;19.90;26.50;;;;;;5063949;28;20197;-52
2020/12/16 08:40:51;;;;;;;1.70;1.60;;;19.90;26.70;;;;;;5065060;28;20161;-51
2020/12/16 08:43:22;;;;;;;5.60;1.95;;;19.90;26.80;;;;;;5066588;28;20193;-52
2020/12/16 08:45:56;;;;;;;6.45;2.03;;;19.90;26.90;;;;;;5065720;28;20411;-52
2020/12/16 08:48:22;;;;;;;8.02;1.98;;;20.00;27.10;;;;;;5065526;28;20388;-54
2020/12/16 08:51:46;;;;;;;1.90;1.80;;;20.00;27.10;;;;;;5065850;28;20681;-54
2020/12/16 08:54:28;;;;;;;3.03;1.83;;;20.00;27.20;;;;;;4972536;28;20204;-55
2020/12/16 08:57:11;;;;;;;2.45;1.92;;;20.00;27.30;;;;;;4972978;28;20219;-54
2020/12/16 08:59:59;;;;;;;6.10;1.80;;;20.00;27.30;;;;;;5064405;28;21041;-52
2020/12/16 09:02:35;;;;;;;3.47;1.80;;;20.10;27.40;;;;;;5063573;28;20265;-52
2020/12/16 09:05:15;;;;;;;2.83;2.00;;;20.10;27.30;;;;;;5045496;28;20185;-52
2020/12/16 09:08:33;;;;;;;4.00;1.90;;;20.10;27.10;;;;;;5047996;28;20235;-52
2020/12/16 09:11:16;;;;;;;4.20;2.03;;;20.20;27.10;;;;;;5035620;28;20687;-54
2020/12/16 09:13:55;;;;;;;2.78;2.10;;;;;;;;;;5059938;28;20196;-53
2020/12/16 09:16:55;;;;;;;2.58;1.95;;;20.20;26.40;;;;;;5030779;28;20237;-53
2020/12/16 09:19:37;;;;;;;2.90;1.90;;;;;;;;;;5034539;28;20174;-53
2020/12/16 09:22:25;;;;;;;3.60;1.85;;;;;;;;;;5046882;28;20182;-53
2020/12/16 09:25:10;;;;;;;;;;;;;;;;;;;;;
2020/12/16 09:28:08;;;;;;;3.35;1.90;;;20.20;26.30;;;;;;5059049;28;20197;-54
2020/12/16 09:30:53;;;;;;;2.33;1.80;;;20.30;26.90;;;;;;5047851;28;21361;-54
2020/12/16 09:33:41;;;;;;;2.65;2.25;;;20.30;27.00;;;;;;5045199;28;20174;-53
2020/12/16 09:36:30;;;;;;;2.63;2.42;;;20.30;27.00;;;;;;5030246;28;21179;-54
2020/12/16 09:39:26;;;;;;;4.65;2.53;;;21.00;27.40;;;;;;5047310;28;20161;-54
2020/12/16 09:42:33;;;;;;;2.05;1.95;;;20.30;26.90;;;;;;5059246;28;20177;-55
2020/12/16 09:45:38;;;;;;;2.47;1.67;;;20.40;26.90;;;;;;5062764;28;20350;-55
2020/12/16 09:48:35;;;;;;;3.75;2.03;;;20.40;26.90;;;;;;4987284;28;20695;-53
2020/12/16 09:51:27;;;;;;;3.03;1.83;;;20.50;27.00;;;;;;5056413;28;20178;-53
2020/12/16 09:54:02;;;;;;;2.75;1.90;;;20.50;26.90;;;;;;5045042;28;21735;-54
2020/12/16 09:56:28;;;;;;;1.83;1.60;;;20.50;26.90;;;;;;5029730;28;20215;-55
2020/12/16 09:58:54;;;;;;;2.77;2.00;;;20.50;26.90;;;;;;5016927;28;20631;-54
2020/12/16 10:01:21;;;;;;;2.90;2.60;;;20.50;26.90;;;;;;5042876;28;20437;-54
2020/12/16 10:03:50;;;;;;;2.55;2.33;;;20.50;26.90;;;;;;5051693;28;20296;-53
2020/12/16 10:06:17;;;;;;;2.05;1.70;;;20.50;27.00;;;;;;5030513;28;20182;-53
2020/12/16 10:08:43;;;;;;;1.90;1.60;;;20.50;27.00;;;;;;5034790;28;20229;-55
2020/12/16 10:11:13;;;;;;;2.25;2.05;;;20.50;27.00;;;;;;5062917;28;20353;-54
2020/12/16 10:13:40;;;;;;;3.10;2.30;;;20.40;27.00;;;;;;5037784;28;20170;-55
2020/12/16 10:16:08;;;;;;;7.22;2.38;;;20.40;27.10;;;;;;5029842;28;20706;-55
2020/12/16 10:18:35;;;;;;;2.03;1.65;;;20.40;27.10;;;;;;5034648;28;20172;-55
2020/12/16 10:21:01;;;;;;;4.55;2.08;;;20.40;27.20;;;;;;5028239;28;20624;-53
2020/12/16 10:23:27;;;;;;;2.92;2.15;;;20.40;27.20;;;;;;5048715;28;20183;-54
2020/12/16 10:25:53;;;;;;;2.33;2.10;;;20.30;27.20;;;;;;5063063;28;20552;-54
2020/12/16 10:28:21;;;;;;;2.17;1.97;;;20.30;27.10;;;;;;5033655;28;20209;-54
2020/12/16 10:30:51;;;;;;;4.22;1.98;;;20.30;27.20;;;;;;5044393;28;20730;-54
2020/12/16 10:33:17;;;;;;;2.28;2.00;;;20.30;27.20;;;;;;5055599;28;20775;-54
2020/12/16 10:35:44;;;;;;;2.72;2.53;;;20.30;27.20;;;;;;5049762;28;20616;-56
2020/12/16 10:38:10;;;;;;;4.00;1.77;;;20.30;27.10;;;;;;5015539;28;20177;-55
2020/12/16 10:40:37;;;;;;;5.78;2.47;;;20.30;27.20;;;;;;5052360;28;20166;-54
2020/12/16 10:43:04;;;;;;;3.70;2.30;;;20.30;27.20;;;;;;5054696;28;20951;-54
2020/12/16 10:45:30;;;;;;;3.00;2.13;;;20.30;27.30;;;;;;5045115;28;20196;-54
2020/12/16 10:47:58;;;;;;;2.30;2.10;;;20.30;27.20;;;;;;5038733;28;20201;-53
2020/12/16 10:50:25;;;;;;;2.67;2.42;;;20.30;27.20;;;;;;5045826;28;20386;-55
2020/12/16 10:52:51;;;;;;;2.67;2.47;;;20.70;27.50;;;;;;5046267;28;20215;-54
2020/12/16 10:55:17;;;;;;;2.40;2.17;;;20.30;27.20;;;;;;5043478;28;20166;-54
2020/12/16 10:57:44;;;;;;;3.42;2.60;;;20.30;27.20;;;;;;5044441;28;20182;-53
2020/12/16 11:00:10;;;;;;;3.55;2.60;;;20.30;27.20;;;;;;5011764;28;20193;-53
2020/12/16 11:02:36;;;;;;;2.30;2.10;;;20.30;27.20;;;;;;5036552;28;20181;-56
2020/12/16 11:05:01;;;;;;;2.50;2.30;;;20.30;27.20;;;;;;5046919;28;20547;-55
2020/12/16 11:07:27;;;;;;;3.30;2.10;;;20.30;27.20;;;;;;5018136;28;20182;-54
2020/12/16 11:09:53;;;;;;;2.23;1.90;;;20.30;27.20;;;;;;5033630;28;20920;-53
2020/12/16 11:12:18;;;;;;;4.90;2.53;;;20.30;27.20;;;;;;5035092;28;20280;-54
2020/12/16 11:14:44;;;;;;;3.20;2.90;;;20.30;27.20;;;;;;5058287;28;20218;-54
2020/12/16 11:17:28;;;;;;;4.35;2.70;;;20.30;27.20;;;;;;5010875;28;20215;-53
2020/12/16 11:19:53;;;;;;;4.50;3.50;;;20.30;27.10;;;;;;5018340;28;20624;-54
2020/12/16 11:22:20;;;;;;;4.10;3.70;;;20.30;27.10;;;;;;5044817;28;20286;-53
2020/12/16 11:24:46;;;;;;;4.95;3.95;;;20.30;27.10;;;;;;5052999;28;20268;-54
2020/12/16 11:27:13;;;;;;;5.40;4.03;;;20.30;27.10;;;;;;5031736;28;20187;-56
2020/12/16 11:29:39;;;;;;;6.13;4.38;;;20.20;27.00;;;;;;5026651;28;21062;-54
2020/12/16 11:32:05;;;;;;;5.30;4.80;;;20.30;27.10;;;;;;5036703;28;20200;-53
2020/12/16 11:34:32;;;;;;;8.17;5.60;;;20.30;27.10;;;;;;5063368;28;20181;-53
2020/12/16 11:37:00;;;;;;;6.28;4.90;;;20.30;27.10;;;;;;5052476;28;21626;-53
2020/12/16 11:39:27;;;;;;;7.30;6.03;;;20.30;27.10;;;;;;5035310;28;20178;-53
2020/12/16 11:41:54;;;;;;;6.90;5.95;;;20.30;27.70;;;;;;5044358;28;20530;-54
2020/12/16 11:44:22;;;;;;;8.35;6.53;;;20.30;27.10;;;;;;5051294;28;20185;-53
2020/12/16 11:46:49;;;;;;;7.53;6.00;;;20.30;27.10;;;;;;5066172;28;20180;-53
2020/12/16 11:49:17;;;;;;;7.15;6.15;;;20.30;27.20;;;;;;5016646;28;20205;-54
2020/12/16 11:51:43;;;;;;;11.15;6.90;;;20.40;27.20;;;;;;5067939;28;20191;-53
2020/12/16 11:54:08;;;;;;;9.30;7.30;;;20.40;27.40;;;;;;5043644;28;21002;-52
2020/12/16 11:56:36;;;;;;;10.23;6.50;;;20.40;27.80;;;;;;5022239;28;20447;-53
2020/12/16 11:59:03;;;;;;;11.27;8.00;;;20.40;27.30;;;;;;5011457;28;20849;-55
2020/12/16 12:01:29;;;;;;;11.10;8.57;;;20.40;27.50;;;;;;5037851;28;20582;-55
2020/12/16 12:03:54;;;;;;;10.93;7.57;;;20.40;27.60;;;;;;5028979;28;20628;-54
2020/12/16 12:06:20;;;;;;;18.00;9.93;;;20.40;27.70;;;;;;5051902;28;20430;-54
2020/12/16 12:08:46;;;;;;;18.63;10.23;;;20.50;27.80;;;;;;5011251;28;20206;-54
2020/12/16 12:11:17;;;;;;;14.02;10.63;;;20.50;27.80;;;;;;5056925;28;20195;-53
2020/12/16 12:13:43;;;;;;;12.23;9.18;;;20.50;27.80;;;;;;5040054;28;20174;-53
2020/12/16 12:16:10;;;;;;;14.90;10.10;;;20.50;27.80;;;;;;5044153;28;20216;-53
2020/12/16 12:18:39;;;;;;;14.88;10.43;;;20.50;27.90;;;;;;5036234;28;20220;-54
2020/12/16 12:21:05;;;;;;;11.85;8.68;;;20.50;27.90;;;;;;5045096;28;20317;-54
2020/12/16 12:23:31;;;;;;;13.57;9.15;;;20.40;27.70;;;;;;5048456;28;20307;-54
2020/12/16 12:25:57;;;;;;;14.27;9.47;;;20.50;27.90;;;;;;5054964;28;20162;-55
2020/12/16 12:28:23;;;;;;;12.87;9.33;;;20.50;28.10;;;;;;5042278;28;20236;-54
2020/12/16 12:30:49;;;;;;;14.87;8.90;;;20.50;28.40;;;;;;5049856;28;21128;-54
2020/12/16 12:33:14;;;;;;;12.00;9.73;;;20.50;28.40;;;;;;5033905;28;20757;-53
2020/12/16 12:35:40;;;;;;;10.17;9.10;;;20.50;28.40;;;;;;5030758;28;20182;-54
2020/12/16 12:38:06;;;;;;;14.10;9.93;;;20.60;28.50;;;;;;5035536;28;20182;-55
2020/12/16 12:40:32;;;;;;;19.83;10.43;;;20.60;28.50;;;;;;5053292;28;21551;-55
2020/12/16 12:42:57;;;;;;;13.00;9.50;;;20.60;28.50;;;;;;5050211;28;20611;-54
2020/12/16 12:45:23;;;;;;;16.23;9.10;;;20.60;28.50;;;;;;5034636;28;20303;-54
2020/12/16 12:47:49;;;;;;;14.43;9.67;;;20.60;28.50;;;;;;5026903;28;21379;-53
2020/12/16 12:50:17;;;;;;;10.40;9.40;;;20.60;28.50;;;;;;5033210;28;20231;-55
2020/12/16 12:52:43;;;;;;;14.25;9.25;;;20.60;28.50;;;;;;5055613;28;20181;-54
2020/12/16 12:55:08;;;;;;;11.03;8.40;;;20.60;28.50;;;;;;5036104;28;20178;-54
2020/12/16 12:57:42;;;;;;;9.60;8.60;;;20.70;28.50;;;;;;5038658;28;20406;-52
2020/12/16 13:00:13;;;;;;;17.05;9.05;;;20.70;28.50;;;;;;5025779;28;20165;-53
2020/12/16 13:02:39;;;;;;;10.05;8.48;;;20.70;28.60;;;;;;5027698;28;20219;-53